createdAt,value
2023-03-08T00:02:27.070Z,6.75
2023-03-08T00:04:57.990Z,6.32
2023-03-08T00:07:25.400Z,6.93
2023-03-08T00:09:52.785Z,6.63
2023-03-08T00:12:23.569Z,6.70
2023-03-08T00:14:51.468Z,7.63
2023-03-08T00:17:19.605Z,6.25
2023-03-08T00:19:46.940Z,7.07
2023-03-08T00:22:14.366Z,6.80
2023-03-08T00:24:41.683Z,7.15
2023-03-08T00:27:09.130Z,6.95
2023-03-08T00:29:36.517Z,7.35
2023-03-08T00:32:04.057Z,6.35
2023-03-08T00:34:31.412Z,6.65
2023-03-08T00:36:59.613Z,6.60
2023-03-08T00:39:26.942Z,6.97
2023-03-08T00:41:54.245Z,7.40
2023-03-08T00:44:21.632Z,6.82
2023-03-08T00:46:48.935Z,7.03
2023-03-08T00:49:16.261Z,6.47
2023-03-08T00:51:43.625Z,6.90
2023-03-08T00:54:10.956Z,7.20
2023-03-08T00:56:38.481Z,7.13
2023-03-08T00:59:05.917Z,6.93
2023-03-08T01:01:33.387Z,8.15
2023-03-08T01:04:01.526Z,7.35
2023-03-08T01:06:28.855Z,8.23
2023-03-08T01:08:56.244Z,8.88
2023-03-08T01:11:26.005Z,11.20
2023-03-08T01:13:54.270Z,11.95
2023-03-08T01:16:27.905Z,14.57
2023-03-08T01:18:55.870Z,15.30
2023-03-08T01:21:23.847Z,17.80
2023-03-08T01:23:51.628Z,18.08
2023-03-08T01:26:21.189Z,19.77
2023-03-08T01:28:49.130Z,22.08
2023-03-08T01:31:22.651Z,21.52
2023-03-08T01:33:50.396Z,23.27
2023-03-08T01:36:20.894Z,23.45
2023-03-08T01:38:48.346Z,22.95
2023-03-08T01:41:26.570Z,24.42
2023-03-08T01:43:54.709Z,24.02
2023-03-08T01:46:31.050Z,24.55
2023-03-08T01:49:11.902Z,27.08
2023-03-08T01:52:08.919Z,26.55
2023-03-08T01:54:46.929Z,26.80
2023-03-08T01:57:35.345Z,27.63
2023-03-08T02:00:19.199Z,28.05
2023-03-08T02:03:01.482Z,30.45
2023-03-08T02:05:30.467Z,33.55
2023-03-08T02:07:57.779Z,35.75
2023-03-08T02:10:25.140Z,34.33
2023-03-08T02:12:52.785Z,34.22
2023-03-08T02:15:21.306Z,35.75
2023-03-08T02:17:48.830Z,34.92
2023-03-08T02:20:23.852Z,35.55
2023-03-08T02:22:53.211Z,37.63
2023-03-08T02:25:23.722Z,39.10
2023-03-08T02:27:53.161Z,38.55
2023-03-08T02:30:36.457Z,39.15
2023-03-08T02:33:04.267Z,40.90
2023-03-08T02:35:31.638Z,41.45
2023-03-08T02:37:59.118Z,44.83
2023-03-08T02:40:26.572Z,42.50
2023-03-08T02:42:56.156Z,42.67
2023-03-08T02:45:24.311Z,42.97
2023-03-08T02:47:51.652Z,40.03
2023-03-08T02:50:19.092Z,42.25
2023-03-08T02:52:46.418Z,45.70
2023-03-08T02:55:13.709Z,42.30
2023-03-08T02:57:41.178Z,43.15
2023-03-08T03:00:09.305Z,44.22
2023-03-08T03:02:36.628Z,44.60
2023-03-08T03:05:05.985Z,44.70
2023-03-08T03:07:36.837Z,45.33
2023-03-08T03:10:05.808Z,46.33
2023-03-08T03:12:33.307Z,47.70
2023-03-08T03:15:02.756Z,41.92
2023-03-08T03:17:30.153Z,43.10
2023-03-08T03:19:57.507Z,44.30
2023-03-08T03:22:24.956Z,45.47
2023-03-08T03:24:52.601Z,40.42
2023-03-08T03:27:20.846Z,40.03
2023-03-08T03:29:49.206Z,47.08
2023-03-08T03:32:16.612Z,43.40
2023-03-08T03:34:44.119Z,46.72
2023-03-08T03:37:11.521Z,48.40
2023-03-08T03:39:39.652Z,52.58
2023-03-08T03:42:10.304Z,51.00
2023-03-08T03:44:38.099Z,48.53
2023-03-08T03:47:05.783Z,49.60
2023-03-08T03:49:33.124Z,52.20
2023-03-08T03:52:00.478Z,55.53
2023-03-08T03:54:27.938Z,49.67
2023-03-08T03:56:58.211Z,53.13
2023-03-08T03:59:26.838Z,57.45
2023-03-08T04:01:55.731Z,62.03
2023-03-08T04:04:24.351Z,63.72
2023-03-08T04:06:51.752Z,61.63
2023-03-08T04:09:19.624Z,60.65
2023-03-08T04:11:47.024Z,57.83
2023-03-08T04:14:14.493Z,59.70
2023-03-08T04:16:42.039Z,55.03
2023-03-08T04:19:12.509Z,55.22
2023-03-08T04:21:40.140Z,55.03
2023-03-08T04:24:07.908Z,59.65
2023-03-08T04:26:35.559Z,54.83
2023-03-08T04:29:06.158Z,55.08
2023-03-08T04:31:35.006Z,49.63
2023-03-08T04:34:03.556Z,48.90
2023-03-08T04:36:31.072Z,52.35
2023-03-08T04:38:58.371Z,49.63
2023-03-08T04:41:25.973Z,52.70
2023-03-08T04:43:55.506Z,55.38
2023-03-08T04:46:25.697Z,54.45
2023-03-08T04:48:54.152Z,56.05
2023-03-08T04:51:22.238Z,58.35
2023-03-08T04:53:49.680Z,57.35
2023-03-08T04:56:17.483Z,55.40
2023-03-08T04:58:45.132Z,55.35
2023-03-08T05:01:15.241Z,61.22
2023-03-08T05:03:43.529Z,54.78
2023-03-08T05:06:11.788Z,56.17
2023-03-08T05:08:39.170Z,57.72
2023-03-08T05:11:06.842Z,57.08
2023-03-08T05:13:37.042Z,63.72
2023-03-08T05:16:06.938Z,68.13
2023-03-08T05:18:34.410Z,64.70
2023-03-08T05:21:07.079Z,73.60
2023-03-08T05:23:34.834Z,74.78
2023-03-08T05:26:03.516Z,77.40
2023-03-08T05:28:32.938Z,68.03
2023-03-08T05:31:09.284Z,73.95
2023-03-08T05:33:37.246Z,73.55
2023-03-08T05:36:06.166Z,69.47
2023-03-08T05:38:33.878Z,72.22
2023-03-08T05:41:03.008Z,69.82
2023-03-08T05:43:30.470Z,84.85
2023-03-08T05:46:23.002Z,82.22
2023-03-08T05:48:50.351Z,71.88
2023-03-08T05:51:19.163Z,77.95
2023-03-08T05:53:46.986Z,72.47
2023-03-08T05:56:16.773Z,78.63
2023-03-08T05:58:47.367Z,75.80
2023-03-08T06:01:26.484Z,73.78
2023-03-08T06:03:56.201Z,77.72
2023-03-08T06:06:25.431Z,79.35
2023-03-08T06:08:52.955Z,76.93
2023-03-08T06:11:20.480Z,77.35
2023-03-08T06:13:50.771Z,71.45
2023-03-08T06:16:18.282Z,68.38
2023-03-08T06:18:45.788Z,78.72
2023-03-08T06:21:18.443Z,79.85
2023-03-08T06:23:46.569Z,75.57
2023-03-08T06:26:14.915Z,74.05
2023-03-08T06:28:42.541Z,70.65
2023-03-08T06:31:13.470Z,74.45
2023-03-08T06:33:40.848Z,67.80
2023-03-08T06:36:11.635Z,62.60
2023-03-08T06:38:43.462Z,58.20
2023-03-08T06:41:13.855Z,61.85
2023-03-08T06:43:41.282Z,59.63
2023-03-08T06:46:14.239Z,58.28
2023-03-08T06:48:41.893Z,58.95
2023-03-08T06:51:09.594Z,58.47
2023-03-08T06:53:38.238Z,58.03
2023-03-08T06:56:06.983Z,58.47
2023-03-08T06:58:36.351Z,59.22
2023-03-08T07:01:05.684Z,59.92
2023-03-08T07:03:37.344Z,57.50
2023-03-08T07:06:10.454Z,58.95
2023-03-08T07:08:42.170Z,56.70
2023-03-08T07:11:10.397Z,59.22
2023-03-08T07:13:38.481Z,56.42
2023-03-08T07:16:10.944Z,51.65
2023-03-08T07:18:39.024Z,46.75
2023-03-08T07:21:14.691Z,50.55
2023-03-08T07:23:54.638Z,53.47
2023-03-08T07:26:32.255Z,54.83
2023-03-08T07:29:14.813Z,53.20
2023-03-08T07:31:53.558Z,56.00
2023-03-08T07:37:14.170Z,56.67
2023-03-08T07:39:48.052Z,57.47
2023-03-08T07:48:08.010Z,50.35
2023-03-08T07:50:43.488Z,53.47
2023-03-08T07:53:12.654Z,51.55
2023-03-08T07:55:49.358Z,49.53
2023-03-08T07:58:23.276Z,50.63
2023-03-08T08:03:48.376Z,54.25
2023-03-08T08:06:24.435Z,49.25
2023-03-08T08:11:52.545Z,49.67
2023-03-08T08:23:12.758Z,45.22
2023-03-08T08:25:42.069Z,43.97
2023-03-08T08:28:13.416Z,43.30
2023-03-08T08:31:09.600Z,46.97
2023-03-08T08:36:42.203Z,53.47
2023-03-08T08:39:20.779Z,58.22
2023-03-08T08:41:51.522Z,53.15
2023-03-08T08:44:29.862Z,51.33
2023-03-08T08:46:59.875Z,52.67
2023-03-08T08:55:25.303Z,40.85
2023-03-08T08:58:07.852Z,46.92
2023-03-08T09:00:54.627Z,44.45
2023-03-08T09:03:25.113Z,43.28
2023-03-08T09:05:53.953Z,43.63
2023-03-08T09:08:30.518Z,44.72
2023-03-08T09:11:11.295Z,45.95
2023-03-08T09:13:55.533Z,42.08
2023-03-08T09:16:31.991Z,43.92
2023-03-08T09:24:34.711Z,41.85
2023-03-08T09:27:06.228Z,39.38
2023-03-08T09:32:34.193Z,39.88
2023-03-08T09:35:01.847Z,38.63
2023-03-08T09:37:31.195Z,38.85
2023-03-08T09:40:00.518Z,33.95
2023-03-08T09:42:41.585Z,34.67
2023-03-08T09:45:40.104Z,31.02
2023-03-08T09:48:20.889Z,30.25
2023-03-08T09:50:53.970Z,29.13
2023-03-08T09:54:42.019Z,27.17
2023-03-08T09:57:33.402Z,26.23
2023-03-08T10:03:25.422Z,22.48
2023-03-08T10:12:53.283Z,19.67
2023-03-08T10:15:24.518Z,14.60
2023-03-08T10:17:59.308Z,16.98
2023-03-08T10:20:30.098Z,16.85
2023-03-08T10:23:21.448Z,14.50
2023-03-08T10:25:52.500Z,14.90
2023-03-08T10:28:27.631Z,13.07
2023-03-08T10:31:08.256Z,14.32
2023-03-08T10:33:37.441Z,13.43
2023-03-08T10:36:18.373Z,14.25
2023-03-08T10:39:05.135Z,14.75
2023-03-08T10:44:47.037Z,12.10
2023-03-08T10:47:24.089Z,11.75
2023-03-08T10:50:05.242Z,11.95
2023-03-08T10:52:33.772Z,11.15
2023-03-08T10:55:13.538Z,11.98
2023-03-08T10:57:44.101Z,13.68
2023-03-08T11:00:31.441Z,13.18
2023-03-08T11:03:16.358Z,12.70
2023-03-08T11:05:53.924Z,14.02
2023-03-08T11:08:28.446Z,14.45
2023-03-08T11:11:09.988Z,13.85
2023-03-08T11:13:44.622Z,14.10
2023-03-08T11:16:34.196Z,13.35
2023-03-08T11:19:31.777Z,15.18
2023-03-08T11:22:08.269Z,14.90
2023-03-08T11:25:08.102Z,13.82
2023-03-08T11:27:44.260Z,16.23
2023-03-08T11:30:47.315Z,15.30
2023-03-08T11:33:39.149Z,15.23
2023-03-08T11:36:48.363Z,16.00
2023-03-08T11:39:35.131Z,14.68
2023-03-08T11:42:50.972Z,16.35
2023-03-08T11:45:33.535Z,12.43
2023-03-08T11:48:13.868Z,12.10
2023-03-08T11:50:54.039Z,14.27
2023-03-08T11:54:03.944Z,15.32
2023-03-08T11:56:54.223Z,11.57
2023-03-08T11:59:33.684Z,12.70
2023-03-08T12:02:40.534Z,10.55
2023-03-08T12:12:03.360Z,12.18
2023-03-08T12:14:36.858Z,12.52
2023-03-08T12:18:08.508Z,11.82
2023-03-08T12:21:37.991Z,12.20
2023-03-08T12:25:13.791Z,12.25
2023-03-08T12:27:50.820Z,13.70
2023-03-08T12:30:33.530Z,14.00
2023-03-08T12:33:05.423Z,16.13
2023-03-08T12:35:45.724Z,15.45
2023-03-08T12:38:47.978Z,16.15
2023-03-08T12:41:58.544Z,16.58
2023-03-08T12:44:39.770Z,16.92
2023-03-08T12:47:26.692Z,15.07
2023-03-08T12:50:01.044Z,15.60
2023-03-08T12:52:38.767Z,15.98
2023-03-08T12:55:35.572Z,15.48
2023-03-08T12:58:23.714Z,13.73
2023-03-08T13:01:05.130Z,14.75
2023-03-08T13:03:55.030Z,14.70
2023-03-08T13:07:17.050Z,14.05
2023-03-08T13:09:53.848Z,14.73
2023-03-08T13:12:51.375Z,13.80
2023-03-08T13:15:27.889Z,13.05
2023-03-08T13:18:06.743Z,13.40
2023-03-08T13:20:41.951Z,14.30
2023-03-08T13:23:23.972Z,15.00
2023-03-08T13:25:59.817Z,14.30
2023-03-08T13:28:47.553Z,14.07
2023-03-08T13:31:24.533Z,14.32
2023-03-08T13:33:57.128Z,14.60
2023-03-08T13:36:33.421Z,12.43
2023-03-08T13:39:13.130Z,13.82
2023-03-08T13:42:15.721Z,13.27
2023-03-08T13:44:54.738Z,11.90
2023-03-08T13:50:52.945Z,13.00
2023-03-08T13:53:29.540Z,14.20
2023-03-08T13:56:06.058Z,13.73
2023-03-08T13:58:52.029Z,14.40
2023-03-08T14:01:51.161Z,11.93
2023-03-08T14:05:12.908Z,14.02
2023-03-08T14:08:33.373Z,14.10
2023-03-08T14:11:24.409Z,14.90
2023-03-08T14:13:57.879Z,14.30
2023-03-08T14:16:51.519Z,15.43
2023-03-08T14:19:50.084Z,15.43
2023-03-08T14:22:38.685Z,15.35
2023-03-08T14:25:17.260Z,15.98
2023-03-08T14:27:45.486Z,16.20
2023-03-08T14:30:15.973Z,17.00
2023-03-08T14:33:04.177Z,15.90
2023-03-08T14:35:37.722Z,15.95
2023-03-08T14:38:21.912Z,15.60
2023-03-08T14:40:50.839Z,16.33
2023-03-08T14:43:20.977Z,17.15
2023-03-08T14:45:54.002Z,17.15
2023-03-08T14:48:35.620Z,17.20
2023-03-08T14:51:24.794Z,17.13
2023-03-08T14:54:03.869Z,16.92
2023-03-08T14:56:32.047Z,17.90
2023-03-08T14:59:12.118Z,18.80
2023-03-08T15:01:44.432Z,18.27
2023-03-08T15:04:20.868Z,17.38
2023-03-08T15:06:49.052Z,17.90
2023-03-08T15:09:18.805Z,18.67
2023-03-08T15:11:47.893Z,17.48
2023-03-08T15:14:15.404Z,18.73
2023-03-08T15:16:42.810Z,17.75
2023-03-08T15:19:12.077Z,17.83
2023-03-08T15:21:39.372Z,16.92
2023-03-08T15:24:07.743Z,16.88
2023-03-08T15:26:35.453Z,16.15
2023-03-08T15:29:03.514Z,15.90
2023-03-08T15:31:31.808Z,15.70
2023-03-08T15:33:59.343Z,15.57
2023-03-08T15:36:26.844Z,16.13
2023-03-08T15:38:54.175Z,18.23
2023-03-08T15:41:21.519Z,17.33
2023-03-08T15:43:48.921Z,15.55
2023-03-08T15:46:16.544Z,16.45
2023-03-08T15:48:45.651Z,14.45
2023-03-08T15:51:23.136Z,15.48
2023-03-08T15:53:50.766Z,16.45
2023-03-08T15:56:18.405Z,16.90
2023-03-08T16:01:34.076Z,18.15
2023-03-08T16:04:04.386Z,21.20
2023-03-08T16:09:25.220Z,19.67
2023-03-08T16:15:12.061Z,21.83
2023-03-08T16:17:41.917Z,22.85
2023-03-08T16:20:10.105Z,23.27
2023-03-08T16:22:37.710Z,23.50
2023-03-08T16:25:06.121Z,21.58
2023-03-08T16:27:36.647Z,22.20
2023-03-08T16:30:16.232Z,23.20
2023-03-08T16:32:46.078Z,21.17
2023-03-08T16:35:52.723Z,20.75
2023-03-08T16:38:24.378Z,19.65
2023-03-08T16:41:12.725Z,19.38
2023-03-08T16:43:47.295Z,18.42
2023-03-08T16:46:29.578Z,18.63
2023-03-08T16:49:00.148Z,18.20
2023-03-08T16:51:32.352Z,19.25
2023-03-08T16:54:00.220Z,18.92
2023-03-08T16:56:29.949Z,20.20
2023-03-08T16:59:01.945Z,20.48
2023-03-08T17:01:36.230Z,20.53
2023-03-08T17:04:05.777Z,22.23
2023-03-08T17:06:33.443Z,22.33
2023-03-08T17:09:01.058Z,22.48
2023-03-08T17:11:32.905Z,22.52
2023-03-08T17:14:02.609Z,23.40
2023-03-08T17:16:31.497Z,22.88
2023-03-08T17:19:00.656Z,23.30
2023-03-08T17:21:29.058Z,21.98
2023-03-08T17:23:57.520Z,23.05
2023-03-08T17:26:25.055Z,23.05
2023-03-08T17:28:53.854Z,22.88
2023-03-08T17:31:22.714Z,23.42
2023-03-08T17:33:50.200Z,23.30
2023-03-08T17:36:17.826Z,23.48
2023-03-08T17:38:45.378Z,22.60
2023-03-08T17:41:15.145Z,23.95
2023-03-08T17:43:42.613Z,23.27
2023-03-08T17:46:18.842Z,24.60
2023-03-08T17:52:40.986Z,23.05
2023-03-08T17:55:09.205Z,23.70
2023-03-08T17:57:37.386Z,25.05
2023-03-08T18:00:06.136Z,24.40
2023-03-08T18:02:34.111Z,25.05
2023-03-08T18:05:01.512Z,23.63
2023-03-08T18:07:32.062Z,25.13
2023-03-08T18:09:59.661Z,26.85
2023-03-08T18:12:28.724Z,27.10
2023-03-08T18:14:56.103Z,25.92
2023-03-08T18:17:23.653Z,26.67
2023-03-08T18:19:51.084Z,27.08
2023-03-08T18:22:18.549Z,27.42
2023-03-08T18:24:45.978Z,26.90
2023-03-08T18:27:15.838Z,27.02
2023-03-08T18:29:43.269Z,26.23
2023-03-08T18:32:10.822Z,28.35
2023-03-08T18:34:39.009Z,28.02
2023-03-08T18:37:06.304Z,25.77
2023-03-08T18:39:33.757Z,28.42
2023-03-08T18:42:02.261Z,27.70
2023-03-08T18:44:32.316Z,26.60
2023-03-08T18:47:00.158Z,28.45
2023-03-08T18:49:27.724Z,28.13
2023-03-08T18:51:55.156Z,29.25
2023-03-08T18:54:22.864Z,30.73
2023-03-08T18:56:53.468Z,30.67
2023-03-08T18:59:21.179Z,28.48
2023-03-08T19:01:52.121Z,30.52
2023-03-08T19:04:19.824Z,28.25
2023-03-08T19:06:47.440Z,29.92
2023-03-08T19:09:16.707Z,29.58
2023-03-08T19:11:44.829Z,27.75
2023-03-08T19:14:13.069Z,29.45
2023-03-08T19:16:40.909Z,30.33
2023-03-08T19:19:10.887Z,31.27
2023-03-08T19:21:41.456Z,30.05
2023-03-08T19:24:09.730Z,29.83
2023-03-08T19:26:38.673Z,31.02
2023-03-08T19:29:13.807Z,32.70
2023-03-08T19:32:01.844Z,32.17
2023-03-08T19:34:37.453Z,31.08
2023-03-08T19:37:06.242Z,30.17
2023-03-08T19:39:36.349Z,32.00
2023-03-08T19:42:13.394Z,30.40
2023-03-08T19:44:41.251Z,31.67
2023-03-08T19:47:09.115Z,30.25
2023-03-08T19:49:38.063Z,30.70
2023-03-08T19:52:07.181Z,30.88
2023-03-08T19:54:34.593Z,32.25
2023-03-08T19:57:02.513Z,31.55
2023-03-08T19:59:30.114Z,29.80
2023-03-08T20:01:57.432Z,31.15
2023-03-08T20:04:25.118Z,32.25
2023-03-08T20:06:52.799Z,33.97
2023-03-08T20:09:24.177Z,37.05
2023-03-08T20:12:01.584Z,38.15
2023-03-08T20:14:30.299Z,40.22
2023-03-08T20:17:03.268Z,42.05
2023-03-08T20:19:33.820Z,43.50
2023-03-08T20:22:03.404Z,41.63
2023-03-08T20:24:30.972Z,40.88
2023-03-08T20:26:59.274Z,42.40
2023-03-08T20:29:26.746Z,41.22
2023-03-08T20:32:02.287Z,39.58
2023-03-08T20:34:33.483Z,37.65
2023-03-08T20:37:00.837Z,38.75
2023-03-08T20:39:28.167Z,38.83
2023-03-08T20:41:56.650Z,38.70
2023-03-08T20:44:24.110Z,38.63
2023-03-08T20:46:51.479Z,38.88
2023-03-08T20:49:18.866Z,37.58
2023-03-08T20:51:47.925Z,37.97
2023-03-08T20:54:15.313Z,40.05
2023-03-08T20:56:42.797Z,39.88
2023-03-08T20:59:10.242Z,39.92
2023-03-08T21:01:37.629Z,40.65
2023-03-08T21:04:05.912Z,40.58
2023-03-08T21:06:33.374Z,39.08
2023-03-08T21:09:00.855Z,41.03
2023-03-08T21:11:29.703Z,41.00
2023-03-08T21:13:57.041Z,38.28
2023-03-08T21:16:31.646Z,39.80
2023-03-08T21:19:01.470Z,38.65
2023-03-08T21:21:34.358Z,38.85
2023-03-08T21:24:15.130Z,36.92
2023-03-08T21:26:43.190Z,36.25
2023-03-08T21:29:13.428Z,35.63
2023-03-08T21:31:44.509Z,34.40
2023-03-08T21:34:13.059Z,35.03
2023-03-08T21:36:41.038Z,34.38
2023-03-08T21:39:08.935Z,36.40
2023-03-08T21:41:39.096Z,35.33
2023-03-08T21:44:09.824Z,34.53
2023-03-08T21:46:38.353Z,35.65
2023-03-08T21:49:06.773Z,36.47
2023-03-08T21:51:37.583Z,37.80
2023-03-08T21:54:06.046Z,37.88
2023-03-08T21:56:35.678Z,37.92
2023-03-08T21:59:04.022Z,37.30
2023-03-08T22:01:34.924Z,37.25
2023-03-08T22:04:03.522Z,36.28
2023-03-08T22:06:31.769Z,38.72
2023-03-08T22:08:59.573Z,38.10
2023-03-08T22:11:27.277Z,38.03
2023-03-08T22:13:57.215Z,40.60
2023-03-08T22:16:24.943Z,39.30
2023-03-08T22:18:56.912Z,39.60
2023-03-08T22:21:24.316Z,42.07
2023-03-08T22:23:59.102Z,38.78
2023-03-08T22:26:27.670Z,40.15
2023-03-08T22:28:55.611Z,39.92
2023-03-08T22:31:25.031Z,39.05
2023-03-08T22:33:52.822Z,39.20
2023-03-08T22:36:20.648Z,36.13
2023-03-08T22:38:48.011Z,36.53
2023-03-08T22:41:18.741Z,34.78
2023-03-08T22:43:46.888Z,34.05
2023-03-08T22:46:17.692Z,33.28
2023-03-08T22:48:45.954Z,34.38
2023-03-08T22:51:14.542Z,34.33
2023-03-08T22:53:42.077Z,34.65
2023-03-08T22:56:21.173Z,33.97
2023-03-08T22:58:48.722Z,34.50
2023-03-08T23:01:18.724Z,34.50
2023-03-08T23:03:49.165Z,33.05
2023-03-08T23:06:17.795Z,34.63
2023-03-08T23:08:45.578Z,37.38
2023-03-08T23:11:13.536Z,34.63
2023-03-08T23:13:41.425Z,32.95
2023-03-08T23:16:11.035Z,34.60
2023-03-08T23:18:38.685Z,36.50
2023-03-08T23:21:09.271Z,33.10
2023-03-08T23:23:37.105Z,33.65
2023-03-08T23:26:09.975Z,32.50
2023-03-08T23:31:15.649Z,32.53
2023-03-08T23:33:43.380Z,29.77
2023-03-08T23:36:12.105Z,32.88
2023-03-08T23:38:39.726Z,33.45
2023-03-08T23:41:09.202Z,31.75
2023-03-08T23:43:37.392Z,30.58
2023-03-08T23:46:13.155Z,31.08
2023-03-08T23:48:41.028Z,31.08
2023-03-08T23:51:11.257Z,30.17
2023-03-08T23:53:38.649Z,31.20
2023-03-08T23:56:07.029Z,33.58
2023-03-08T23:58:34.343Z,30.90
